sensor_id;sensor_type;location;lat;lon;timestamp;pressure;altitude;pressure_sealevel;temperature;humidity
72124;BME280;63818;37.134;-8.548;2024-03-29T00:04:15;99788.5;;;13.3;88.2
72124;BME280;63818;37.134;-8.548;2024-03-29T00:09:03;99775.2;;;13.4;88.3
72124;BME280;63818;37.134;-8.548;2024-03-29T00:13:51;99779.9;;;13.4;88.0
72124;BME280;63818;37.134;-8.548;2024-03-29T00:18:39;99806.1;;;13.4;87.3
72124;BME280;63818;37.134;-8.548;2024-03-29T00:23:29;99799.8;;;13.4;86.2
72124;BME280;63818;37.134;-8.548;2024-03-29T00:28:17;99813.7;;;13.4;86.6
72124;BME280;63818;37.134;-8.548;2024-03-29T00:33:06;99776.7;;;13.4;85.9
72124;BME280;63818;37.134;-8.548;2024-03-29T00:37:54;99766.1;;;13.5;86.9
72124;BME280;63818;37.134;-8.548;2024-03-29T00:42:42;99756.6;;;13.5;87.4
72124;BME280;63818;37.134;-8.548;2024-03-29T00:47:32;99748.5;;;13.5;87.0
72124;BME280;63818;37.134;-8.548;2024-03-29T00:52:20;99735.4;;;13.6;86.9
72124;BME280;63818;37.134;-8.548;2024-03-29T00:57:08;99740.0;;;13.5;86.6
72124;BME280;63818;37.134;-8.548;2024-03-29T01:01:58;99760.4;;;13.5;86.1
72124;BME280;63818;37.134;-8.548;2024-03-29T01:06:49;99749.7;;;13.6;85.4
72124;BME280;63818;37.134;-8.548;2024-03-29T01:11:37;99731.5;;;13.5;85.3
72124;BME280;63818;37.134;-8.548;2024-03-29T01:16:25;99730.7;;;13.5;86.4
72124;BME280;63818;37.134;-8.548;2024-03-29T01:21:14;99734.6;;;13.5;87.0
72124;BME280;63818;37.134;-8.548;2024-03-29T01:26:02;99729.5;;;13.5;87.6
72124;BME280;63818;37.134;-8.548;2024-03-29T01:30:53;99735.4;;;13.5;87.8
72124;BME280;63818;37.134;-8.548;2024-03-29T01:35:41;99751.0;;;13.5;88.7
72124;BME280;63818;37.134;-8.548;2024-03-29T01:40:29;99765.3;;;13.5;88.7
72124;BME280;63818;37.134;-8.548;2024-03-29T01:45:20;99746.7;;;13.4;89.3
72124;BME280;63818;37.134;-8.548;2024-03-29T01:50:08;99741.7;;;13.4;90.4
72124;BME280;63818;37.134;-8.548;2024-03-29T01:54:56;99729.4;;;13.4;91.0
72124;BME280;63818;37.134;-8.548;2024-03-29T01:59:45;99739.0;;;13.4;91.5
72124;BME280;63818;37.134;-8.548;2024-03-29T02:04:35;99748.1;;;13.4;90.8
72124;BME280;63818;37.134;-8.548;2024-03-29T02:09:23;99756.4;;;13.3;91.4
72124;BME280;63818;37.134;-8.548;2024-03-29T02:14:13;99768.8;;;13.3;91.7
72124;BME280;63818;37.134;-8.548;2024-03-29T02:19:01;99783.2;;;13.2;92.2
72124;BME280;63818;37.134;-8.548;2024-03-29T02:23:56;99761.2;;;13.2;92.3
72124;BME280;63818;37.134;-8.548;2024-03-29T02:28:44;99738.5;;;13.2;92.6
72124;BME280;63818;37.134;-8.548;2024-03-29T02:33:32;99726.6;;;13.2;93.1
72124;BME280;63818;37.134;-8.548;2024-03-29T02:38:20;99721.9;;;13.2;93.3
72124;BME280;63818;37.134;-8.548;2024-03-29T02:43:08;99727.8;;;13.2;93.6
72124;BME280;63818;37.134;-8.548;2024-03-29T02:47:56;99709.5;;;13.2;93.1
72124;BME280;63818;37.134;-8.548;2024-03-29T02:52:46;99687.4;;;13.3;94.0
72124;BME280;63818;37.134;-8.548;2024-03-29T02:57:34;99672.8;;;13.3;95.1
72124;BME280;63818;37.134;-8.548;2024-03-29T03:02:22;99659.7;;;13.3;95.0
72124;BME280;63818;37.134;-8.548;2024-03-29T03:07:10;99635.0;;;13.3;95.6
72124;BME280;63818;37.134;-8.548;2024-03-29T03:11:58;99620.4;;;13.3;95.5
72124;BME280;63818;37.134;-8.548;2024-03-29T03:16:46;99629.9;;;13.2;93.5
72124;BME280;63818;37.134;-8.548;2024-03-29T03:21:35;99619.1;;;13.2;93.0
72124;BME280;63818;37.134;-8.548;2024-03-29T03:26:23;99610.4;;;13.3;92.0
72124;BME280;63818;37.134;-8.548;2024-03-29T03:31:10;99627.8;;;13.3;91.8
72124;BME280;63818;37.134;-8.548;2024-03-29T03:35:59;99608.5;;;13.3;91.7
72124;BME280;63818;37.134;-8.548;2024-03-29T03:40:47;99613.5;;;13.3;91.9
72124;BME280;63818;37.134;-8.548;2024-03-29T03:45:36;99622.3;;;13.3;91.5
72124;BME280;63818;37.134;-8.548;2024-03-29T03:50:24;99633.0;;;13.2;91.0
72124;BME280;63818;37.134;-8.548;2024-03-29T03:55:12;99638.2;;;13.2;90.5
72124;BME280;63818;37.134;-8.548;2024-03-29T04:00:00;99636.6;;;13.1;90.3
72124;BME280;63818;37.134;-8.548;2024-03-29T04:04:49;99637.0;;;13.1;90.5
72124;BME280;63818;37.134;-8.548;2024-03-29T04:09:37;99644.6;;;13.1;90.7
72124;BME280;63818;37.134;-8.548;2024-03-29T04:14:27;99646.8;;;13.1;91.4
72124;BME280;63818;37.134;-8.548;2024-03-29T04:19:15;99647.7;;;13.1;92.0
72124;BME280;63818;37.134;-8.548;2024-03-29T04:24:03;99643.3;;;13.1;92.9
72124;BME280;63818;37.134;-8.548;2024-03-29T04:28:51;99652.5;;;13.0;92.7
72124;BME280;63818;37.134;-8.548;2024-03-29T04:33:39;99645.7;;;13.1;92.8
72124;BME280;63818;37.134;-8.548;2024-03-29T04:38:27;99631.2;;;13.0;92.8
72124;BME280;63818;37.134;-8.548;2024-03-29T04:43:15;99614.6;;;12.9;92.3
72124;BME280;63818;37.134;-8.548;2024-03-29T04:48:03;99628.0;;;12.9;91.6
72124;BME280;63818;37.134;-8.548;2024-03-29T04:52:51;99625.8;;;12.8;90.9
72124;BME280;63818;37.134;-8.548;2024-03-29T04:57:39;99608.8;;;12.8;90.4
72124;BME280;63818;37.134;-8.548;2024-03-29T05:02:27;99615.8;;;12.8;90.4
72124;BME280;63818;37.134;-8.548;2024-03-29T05:07:15;99607.4;;;12.7;90.3
72124;BME280;63818;37.134;-8.548;2024-03-29T05:12:03;99599.3;;;12.7;89.9
72124;BME280;63818;37.134;-8.548;2024-03-29T05:16:51;99604.7;;;12.7;90.1
72124;BME280;63818;37.134;-8.548;2024-03-29T05:21:39;99615.8;;;12.6;90.8
72124;BME280;63818;37.134;-8.548;2024-03-29T05:26:27;99623.6;;;12.7;91.3
72124;BME280;63818;37.134;-8.548;2024-03-29T05:31:16;99623.8;;;12.6;92.3
72124;BME280;63818;37.134;-8.548;2024-03-29T05:36:04;99623.8;;;12.6;92.6
72124;BME280;63818;37.134;-8.548;2024-03-29T05:40:52;99618.0;;;12.6;93.0
72124;BME280;63818;37.134;-8.548;2024-03-29T05:45:40;99614.9;;;12.6;93.3
72124;BME280;63818;37.134;-8.548;2024-03-29T05:50:28;99618.4;;;12.6;93.2
72124;BME280;63818;37.134;-8.548;2024-03-29T05:55:16;99602.9;;;12.6;92.7
72124;BME280;63818;37.134;-8.548;2024-03-29T06:00:05;99603.6;;;12.6;92.1
72124;BME280;63818;37.134;-8.548;2024-03-29T06:04:53;99599.8;;;12.6;91.7
72124;BME280;63818;37.134;-8.548;2024-03-29T06:09:41;99602.5;;;12.6;91.5
72124;BME280;63818;37.134;-8.548;2024-03-29T06:14:29;99614.5;;;12.6;92.1
72124;BME280;63818;37.134;-8.548;2024-03-29T06:19:16;99614.3;;;12.5;92.7
72124;BME280;63818;37.134;-8.548;2024-03-29T06:24:05;99614.9;;;12.5;92.5
72124;BME280;63818;37.134;-8.548;2024-03-29T06:28:55;99643.3;;;12.4;93.7
72124;BME280;63818;37.134;-8.548;2024-03-29T06:33:43;99647.1;;;12.4;93.3
72124;BME280;63818;37.134;-8.548;2024-03-29T06:38:31;99625.0;;;12.3;92.4
72124;BME280;63818;37.134;-8.548;2024-03-29T06:43:19;99632.0;;;12.4;91.8
72124;BME280;63818;37.134;-8.548;2024-03-29T06:48:10;99651.4;;;12.4;91.9
72124;BME280;63818;37.134;-8.548;2024-03-29T06:52:58;99654.4;;;12.4;92.7
72124;BME280;63818;37.134;-8.548;2024-03-29T06:57:48;99620.9;;;12.4;92.1
72124;BME280;63818;37.134;-8.548;2024-03-29T07:02:36;99625.9;;;12.4;91.9
72124;BME280;63818;37.134;-8.548;2024-03-29T07:07:24;99616.1;;;12.5;92.3
72124;BME280;63818;37.134;-8.548;2024-03-29T07:12:12;99602.9;;;12.6;92.0
72124;BME280;63818;37.134;-8.548;2024-03-29T07:17:01;99612.6;;;12.6;92.1
72124;BME280;63818;37.134;-8.548;2024-03-29T07:21:50;99634.3;;;12.7;91.9
72124;BME280;63818;37.134;-8.548;2024-03-29T07:26:39;99649.7;;;12.7;91.6
72124;BME280;63818;37.134;-8.548;2024-03-29T07:31:27;99657.9;;;12.7;92.3
72124;BME280;63818;37.134;-8.548;2024-03-29T07:36:16;99660.0;;;12.6;92.5
72124;BME280;63818;37.134;-8.548;2024-03-29T07:41:04;99674.9;;;12.6;92.9
72124;BME280;63818;37.134;-8.548;2024-03-29T07:45:52;99671.0;;;12.6;93.2
72124;BME280;63818;37.134;-8.548;2024-03-29T07:50:41;99672.1;;;12.6;93.5
72124;BME280;63818;37.134;-8.548;2024-03-29T07:55:29;99683.1;;;12.6;93.4
72124;BME280;63818;37.134;-8.548;2024-03-29T08:00:17;99685.1;;;12.6;93.2
72124;BME280;63818;37.134;-8.548;2024-03-29T08:05:05;99688.0;;;12.6;93.8
72124;BME280;63818;37.134;-8.548;2024-03-29T08:09:53;99692.0;;;12.6;93.7
72124;BME280;63818;37.134;-8.548;2024-03-29T08:14:43;99693.3;;;12.6;93.9
72124;BME280;63818;37.134;-8.548;2024-03-29T08:19:33;99693.9;;;12.6;94.1
72124;BME280;63818;37.134;-8.548;2024-03-29T08:24:21;99701.9;;;12.7;94.3
72124;BME280;63818;37.134;-8.548;2024-03-29T08:29:11;99701.8;;;12.7;93.5
72124;BME280;63818;37.134;-8.548;2024-03-29T08:33:59;99699.2;;;12.7;93.4
72124;BME280;63818;37.134;-8.548;2024-03-29T08:38:49;99705.8;;;12.8;93.4
72124;BME280;63818;37.134;-8.548;2024-03-29T08:43:37;99701.6;;;12.8;93.9
72124;BME280;63818;37.134;-8.548;2024-03-29T08:48:26;99719.7;;;12.8;93.2
72124;BME280;63818;37.134;-8.548;2024-03-29T08:53:15;99715.9;;;12.8;92.9
72124;BME280;63818;37.134;-8.548;2024-03-29T08:58:03;99722.9;;;12.8;92.2
72124;BME280;63818;37.134;-8.548;2024-03-29T09:02:51;99726.4;;;12.9;91.2
72124;BME280;63818;37.134;-8.548;2024-03-29T09:07:39;99727.9;;;12.8;88.7
72124;BME280;63818;37.134;-8.548;2024-03-29T09:12:27;99730.0;;;12.9;88.6
72124;BME280;63818;37.134;-8.548;2024-03-29T09:17:15;99730.5;;;12.9;87.3
72124;BME280;63818;37.134;-8.548;2024-03-29T09:22:03;99733.4;;;13.0;86.6
72124;BME280;63818;37.134;-8.548;2024-03-29T09:26:52;99751.8;;;13.0;86.4
72124;BME280;63818;37.134;-8.548;2024-03-29T09:31:40;99753.3;;;13.0;85.9
72124;BME280;63818;37.134;-8.548;2024-03-29T09:36:28;99751.9;;;13.0;85.6
72124;BME280;63818;37.134;-8.548;2024-03-29T09:41:17;99753.3;;;13.1;86.4
72124;BME280;63818;37.134;-8.548;2024-03-29T09:46:06;99767.0;;;13.2;86.5
72124;BME280;63818;37.134;-8.548;2024-03-29T09:50:55;99756.4;;;13.3;85.0
72124;BME280;63818;37.134;-8.548;2024-03-29T09:55:48;99769.1;;;13.3;84.7
72124;BME280;63818;37.134;-8.548;2024-03-29T10:00:36;99784.6;;;13.3;83.8
72124;BME280;63818;37.134;-8.548;2024-03-29T10:05:24;99786.3;;;13.4;84.2
72124;BME280;63818;37.134;-8.548;2024-03-29T10:10:13;99784.0;;;13.4;82.1
72124;BME280;63818;37.134;-8.548;2024-03-29T10:15:03;99779.9;;;13.4;82.2
72124;BME280;63818;37.134;-8.548;2024-03-29T10:19:51;99773.9;;;13.5;81.0
72124;BME280;63818;37.134;-8.548;2024-03-29T10:24:40;99781.2;;;13.5;78.7
72124;BME280;63818;37.134;-8.548;2024-03-29T10:29:29;99784.4;;;13.5;78.2
72124;BME280;63818;37.134;-8.548;2024-03-29T10:34:17;99781.9;;;13.6;77.1
72124;BME280;63818;37.134;-8.548;2024-03-29T10:39:10;99774.9;;;13.8;76.9
72124;BME280;63818;37.134;-8.548;2024-03-29T10:44:01;99792.1;;;13.9;77.7
72124;BME280;63818;37.134;-8.548;2024-03-29T10:48:50;99797.5;;;13.9;76.0
72124;BME280;63818;37.134;-8.548;2024-03-29T10:53:38;99802.7;;;13.9;77.6
72124;BME280;63818;37.134;-8.548;2024-03-29T10:58:30;99814.7;;;14.0;77.1
72124;BME280;63818;37.134;-8.548;2024-03-29T11:03:20;99793.9;;;14.0;76.6
72124;BME280;63818;37.134;-8.548;2024-03-29T11:08:08;99790.0;;;14.0;76.0
72124;BME280;63818;37.134;-8.548;2024-03-29T11:13:06;99791.0;;;14.1;76.9
72124;BME280;63818;37.134;-8.548;2024-03-29T11:17:55;99785.8;;;14.0;76.0
72124;BME280;63818;37.134;-8.548;2024-03-29T11:22:44;99784.9;;;14.1;77.0
72124;BME280;63818;37.134;-8.548;2024-03-29T11:27:33;99772.6;;;14.1;77.2
72124;BME280;63818;37.134;-8.548;2024-03-29T11:32:36;99765.8;;;14.0;76.1
72124;BME280;63818;37.134;-8.548;2024-03-29T11:37:31;99765.2;;;14.1;77.2
72124;BME280;63818;37.134;-8.548;2024-03-29T11:42:37;99759.6;;;14.2;74.9
72124;BME280;63818;37.134;-8.548;2024-03-29T11:47:25;99753.8;;;14.2;73.1
72124;BME280;63818;37.134;-8.548;2024-03-29T11:52:17;99749.5;;;14.2;73.3
72124;BME280;63818;37.134;-8.548;2024-03-29T11:57:05;99756.4;;;14.1;73.7
72124;BME280;63818;37.134;-8.548;2024-03-29T12:01:53;99754.1;;;14.1;74.5
72124;BME280;63818;37.134;-8.548;2024-03-29T12:06:42;99753.0;;;14.2;74.0
72124;BME280;63818;37.134;-8.548;2024-03-29T12:11:31;99749.7;;;14.2;73.1
72124;BME280;63818;37.134;-8.548;2024-03-29T12:16:19;99756.0;;;14.3;72.1
72124;BME280;63818;37.134;-8.548;2024-03-29T12:21:07;99742.2;;;14.4;72.2
72124;BME280;63818;37.134;-8.548;2024-03-29T12:25:57;99745.0;;;14.4;73.6
72124;BME280;63818;37.134;-8.548;2024-03-29T12:30:46;99745.8;;;14.4;72.6
72124;BME280;63818;37.134;-8.548;2024-03-29T12:35:35;99747.8;;;14.4;71.1
72124;BME280;63818;37.134;-8.548;2024-03-29T12:40:24;99737.8;;;14.5;70.5
72124;BME280;63818;37.134;-8.548;2024-03-29T12:45:12;99741.0;;;14.5;71.0
72124;BME280;63818;37.134;-8.548;2024-03-29T12:50:02;99741.4;;;14.5;72.6
72124;BME280;63818;37.134;-8.548;2024-03-29T12:54:50;99737.9;;;14.5;73.5
72124;BME280;63818;37.134;-8.548;2024-03-29T12:59:38;99744.7;;;14.6;74.2
72124;BME280;63818;37.134;-8.548;2024-03-29T13:04:26;99746.4;;;14.7;74.8
72124;BME280;63818;37.134;-8.548;2024-03-29T13:09:14;99734.2;;;14.8;74.0
72124;BME280;63818;37.134;-8.548;2024-03-29T13:14:02;99729.2;;;14.9;73.9
72124;BME280;63818;37.134;-8.548;2024-03-29T13:18:49;99712.7;;;14.9;72.7
72124;BME280;63818;37.134;-8.548;2024-03-29T13:23:38;99720.8;;;14.9;73.6
72124;BME280;63818;37.134;-8.548;2024-03-29T13:28:25;99718.1;;;14.9;74.1
72124;BME280;63818;37.134;-8.548;2024-03-29T13:33:16;99715.0;;;14.9;74.3
72124;BME280;63818;37.134;-8.548;2024-03-29T13:38:04;99707.7;;;14.9;74.9
72124;BME280;63818;37.134;-8.548;2024-03-29T13:42:52;99711.2;;;14.9;74.2
72124;BME280;63818;37.134;-8.548;2024-03-29T13:47:41;99703.9;;;14.9;73.8
72124;BME280;63818;37.134;-8.548;2024-03-29T13:52:30;99709.3;;;15.0;74.0
72124;BME280;63818;37.134;-8.548;2024-03-29T13:57:20;99697.8;;;15.0;73.5
72124;BME280;63818;37.134;-8.548;2024-03-29T14:02:08;99693.7;;;15.1;73.5
72124;BME280;63818;37.134;-8.548;2024-03-29T14:06:56;99668.2;;;15.1;67.7
72124;BME280;63818;37.134;-8.548;2024-03-29T14:11:44;99658.9;;;15.1;63.2
72124;BME280;63818;37.134;-8.548;2024-03-29T14:16:32;99640.3;;;15.1;60.5
72124;BME280;63818;37.134;-8.548;2024-03-29T14:21:23;99649.7;;;14.9;61.0
72124;BME280;63818;37.134;-8.548;2024-03-29T14:26:10;99649.6;;;14.8;59.8
72124;BME280;63818;37.134;-8.548;2024-03-29T14:30:58;99648.1;;;14.9;61.4
72124;BME280;63818;37.134;-8.548;2024-03-29T14:35:46;99653.2;;;14.9;64.2
72124;BME280;63818;37.134;-8.548;2024-03-29T14:40:34;99647.7;;;14.8;65.9
72124;BME280;63818;37.134;-8.548;2024-03-29T14:45:22;99638.7;;;14.8;65.4
72124;BME280;63818;37.134;-8.548;2024-03-29T14:50:12;99645.2;;;14.8;67.0
72124;BME280;63818;37.134;-8.548;2024-03-29T14:55:00;99637.1;;;14.8;68.4
72124;BME280;63818;37.134;-8.548;2024-03-29T14:59:48;99679.3;;;14.4;70.2
72124;BME280;63818;37.134;-8.548;2024-03-29T15:04:36;99692.9;;;13.6;75.4
72124;BME280;63818;37.134;-8.548;2024-03-29T15:09:24;99693.7;;;13.7;77.3
72124;BME280;63818;37.134;-8.548;2024-03-29T15:14:12;99682.4;;;14.0;78.0
72124;BME280;63818;37.134;-8.548;2024-03-29T15:19:00;99680.9;;;14.2;76.8
72124;BME280;63818;37.134;-8.548;2024-03-29T15:23:51;99668.6;;;14.4;74.9
72124;BME280;63818;37.134;-8.548;2024-03-29T15:28:39;99662.6;;;14.5;73.6
72124;BME280;63818;37.134;-8.548;2024-03-29T15:33:28;99646.7;;;14.3;73.1
72124;BME280;63818;37.134;-8.548;2024-03-29T15:38:15;99623.8;;;14.2;71.3
72124;BME280;63818;37.134;-8.548;2024-03-29T15:43:04;99606.7;;;14.1;70.0
72124;BME280;63818;37.134;-8.548;2024-03-29T15:47:51;99598.9;;;14.1;69.1
72124;BME280;63818;37.134;-8.548;2024-03-29T15:52:39;99603.8;;;14.2;70.0
72124;BME280;63818;37.134;-8.548;2024-03-29T15:57:27;99605.7;;;14.2;70.2
72124;BME280;63818;37.134;-8.548;2024-03-29T16:02:15;99610.0;;;14.3;70.8
72124;BME280;63818;37.134;-8.548;2024-03-29T16:07:03;99606.9;;;14.2;71.6
72124;BME280;63818;37.134;-8.548;2024-03-29T16:11:51;99603.5;;;14.3;72.1
72124;BME280;63818;37.134;-8.548;2024-03-29T16:16:39;99597.7;;;14.3;71.3
72124;BME280;63818;37.134;-8.548;2024-03-29T16:21:27;99578.5;;;14.3;69.5
72124;BME280;63818;37.134;-8.548;2024-03-29T16:26:15;99579.3;;;14.4;73.0
72124;BME280;63818;37.134;-8.548;2024-03-29T16:31:04;99577.1;;;14.4;72.5
72124;BME280;63818;37.134;-8.548;2024-03-29T16:35:52;99571.0;;;14.2;74.3
72124;BME280;63818;37.134;-8.548;2024-03-29T16:40:41;99556.0;;;14.3;75.6
72124;BME280;63818;37.134;-8.548;2024-03-29T16:45:29;99566.2;;;14.4;75.9
72124;BME280;63818;37.134;-8.548;2024-03-29T16:50:17;99547.3;;;14.4;76.5
72124;BME280;63818;37.134;-8.548;2024-03-29T16:55:09;99547.2;;;14.6;74.1
72124;BME280;63818;37.134;-8.548;2024-03-29T16:59:57;99542.7;;;14.6;70.3
72124;BME280;63818;37.134;-8.548;2024-03-29T17:04:45;99542.9;;;14.5;71.1
72124;BME280;63818;37.134;-8.548;2024-03-29T17:09:38;99541.2;;;14.4;69.3
72124;BME280;63818;37.134;-8.548;2024-03-29T17:14:25;99502.7;;;14.3;70.0
72124;BME280;63818;37.134;-8.548;2024-03-29T17:19:13;99510.3;;;14.2;71.7
72124;BME280;63818;37.134;-8.548;2024-03-29T17:24:01;99508.4;;;14.2;71.7
72124;BME280;63818;37.134;-8.548;2024-03-29T17:28:49;99515.3;;;14.1;71.6
72124;BME280;63818;37.134;-8.548;2024-03-29T17:33:37;99505.5;;;14.1;71.2
72124;BME280;63818;37.134;-8.548;2024-03-29T17:38:25;99518.6;;;14.1;72.5
72124;BME280;63818;37.134;-8.548;2024-03-29T17:43:13;99527.1;;;14.1;73.2
72124;BME280;63818;37.134;-8.548;2024-03-29T17:48:01;99526.5;;;14.0;76.9
72124;BME280;63818;37.134;-8.548;2024-03-29T17:52:49;99514.6;;;14.0;78.2
72124;BME280;63818;37.134;-8.548;2024-03-29T17:57:38;99520.7;;;13.9;78.8
72124;BME280;63818;37.134;-8.548;2024-03-29T18:02:25;99518.7;;;13.9;78.7
72124;BME280;63818;37.134;-8.548;2024-03-29T18:07:13;99527.0;;;13.6;78.9
72124;BME280;63818;37.134;-8.548;2024-03-29T18:12:02;99530.3;;;13.5;81.1
72124;BME280;63818;37.134;-8.548;2024-03-29T18:16:52;99520.4;;;13.4;82.1
72124;BME280;63818;37.134;-8.548;2024-03-29T18:21:40;99523.7;;;13.3;83.1
72124;BME280;63818;37.134;-8.548;2024-03-29T18:26:28;99529.3;;;13.4;83.1
72124;BME280;63818;37.134;-8.548;2024-03-29T18:31:16;99505.1;;;13.4;82.6
72124;BME280;63818;37.134;-8.548;2024-03-29T18:36:05;99495.1;;;13.4;80.6
72124;BME280;63818;37.134;-8.548;2024-03-29T18:40:53;99500.8;;;13.4;80.5
72124;BME280;63818;37.134;-8.548;2024-03-29T18:45:41;99511.3;;;13.5;81.0
72124;BME280;63818;37.134;-8.548;2024-03-29T18:50:31;99497.5;;;13.5;81.9
72124;BME280;63818;37.134;-8.548;2024-03-29T18:55:19;99496.6;;;13.4;82.2
72124;BME280;63818;37.134;-8.548;2024-03-29T19:00:08;99505.9;;;13.4;82.3
72124;BME280;63818;37.134;-8.548;2024-03-29T19:04:55;99503.2;;;13.5;82.6
72124;BME280;63818;37.134;-8.548;2024-03-29T19:09:44;99503.7;;;13.5;83.4
72124;BME280;63818;37.134;-8.548;2024-03-29T19:14:31;99519.4;;;13.4;84.0
72124;BME280;63818;37.134;-8.548;2024-03-29T19:19:20;99526.4;;;13.3;84.1
72124;BME280;63818;37.134;-8.548;2024-03-29T19:24:08;99527.0;;;13.2;84.8
72124;BME280;63818;37.134;-8.548;2024-03-29T19:28:56;99528.9;;;13.2;85.2
72124;BME280;63818;37.134;-8.548;2024-03-29T19:33:44;99529.8;;;13.3;85.4
72124;BME280;63818;37.134;-8.548;2024-03-29T19:38:32;99521.4;;;13.3;86.0
72124;BME280;63818;37.134;-8.548;2024-03-29T19:43:21;99533.8;;;13.3;85.9
72124;BME280;63818;37.134;-8.548;2024-03-29T19:48:09;99522.2;;;13.3;87.4
72124;BME280;63818;37.134;-8.548;2024-03-29T19:52:57;99526.0;;;13.3;88.3
72124;BME280;63818;37.134;-8.548;2024-03-29T19:57:45;99519.8;;;13.3;86.7
72124;BME280;63818;37.134;-8.548;2024-03-29T20:02:33;99525.4;;;13.4;86.8
72124;BME280;63818;37.134;-8.548;2024-03-29T20:07:22;99531.6;;;13.4;87.4
72124;BME280;63818;37.134;-8.548;2024-03-29T20:12:10;99540.1;;;13.4;88.1
72124;BME280;63818;37.134;-8.548;2024-03-29T20:16:57;99529.7;;;13.2;86.6
72124;BME280;63818;37.134;-8.548;2024-03-29T20:21:46;99532.5;;;13.3;87.8
72124;BME280;63818;37.134;-8.548;2024-03-29T20:26:37;99533.8;;;13.3;88.2
72124;BME280;63818;37.134;-8.548;2024-03-29T20:31:25;99520.3;;;13.3;89.1
72124;BME280;63818;37.134;-8.548;2024-03-29T20:36:14;99535.5;;;13.2;88.6
72124;BME280;63818;37.134;-8.548;2024-03-29T20:41:03;99525.2;;;13.3;88.5
72124;BME280;63818;37.134;-8.548;2024-03-29T20:45:51;99516.0;;;13.3;87.8
72124;BME280;63818;37.134;-8.548;2024-03-29T20:50:39;99517.2;;;13.3;87.5
72124;BME280;63818;37.134;-8.548;2024-03-29T20:55:28;99517.6;;;13.3;86.9
72124;BME280;63818;37.134;-8.548;2024-03-29T21:00:16;99516.9;;;13.4;87.0
72124;BME280;63818;37.134;-8.548;2024-03-29T21:05:07;99522.8;;;13.4;87.2
72124;BME280;63818;37.134;-8.548;2024-03-29T21:09:55;99532.4;;;13.4;87.7
72124;BME280;63818;37.134;-8.548;2024-03-29T21:14:43;99530.6;;;13.3;87.0
72124;BME280;63818;37.134;-8.548;2024-03-29T21:19:31;99528.5;;;13.2;87.3
72124;BME280;63818;37.134;-8.548;2024-03-29T21:24:19;99581.2;;;13.2;88.9
72124;BME280;63818;37.134;-8.548;2024-03-29T21:29:07;99577.1;;;13.1;90.0
72124;BME280;63818;37.134;-8.548;2024-03-29T21:33:55;99568.8;;;13.0;90.5
72124;BME280;63818;37.134;-8.548;2024-03-29T21:38:43;99556.2;;;13.0;91.2
72124;BME280;63818;37.134;-8.548;2024-03-29T21:43:31;99549.7;;;13.0;90.7
72124;BME280;63818;37.134;-8.548;2024-03-29T21:48:19;99555.1;;;13.1;90.9
72124;BME280;63818;37.134;-8.548;2024-03-29T21:53:07;99533.8;;;13.0;90.2
72124;BME280;63818;37.134;-8.548;2024-03-29T21:57:55;99528.1;;;13.0;89.2
72124;BME280;63818;37.134;-8.548;2024-03-29T22:02:43;99542.4;;;13.1;88.6
72124;BME280;63818;37.134;-8.548;2024-03-29T22:07:31;99540.3;;;13.1;88.2
72124;BME280;63818;37.134;-8.548;2024-03-29T22:12:19;99538.9;;;13.2;88.5
72124;BME280;63818;37.134;-8.548;2024-03-29T22:17:07;99528.9;;;13.2;88.0
72124;BME280;63818;37.134;-8.548;2024-03-29T22:21:56;99567.4;;;13.2;88.5
72124;BME280;63818;37.134;-8.548;2024-03-29T22:26:44;99584.9;;;12.9;86.5
72124;BME280;63818;37.134;-8.548;2024-03-29T22:31:31;99616.3;;;12.7;88.8
72124;BME280;63818;37.134;-8.548;2024-03-29T22:36:22;99585.0;;;12.6;89.6
72124;BME280;63818;37.134;-8.548;2024-03-29T22:41:11;99586.2;;;12.7;91.0
72124;BME280;63818;37.134;-8.548;2024-03-29T22:45:59;99569.5;;;12.6;90.5
72124;BME280;63818;37.134;-8.548;2024-03-29T22:50:48;99573.4;;;12.6;90.7
72124;BME280;63818;37.134;-8.548;2024-03-29T22:55:36;99574.6;;;12.6;90.4
72124;BME280;63818;37.134;-8.548;2024-03-29T23:00:24;99582.8;;;12.7;90.8
72124;BME280;63818;37.134;-8.548;2024-03-29T23:05:12;99573.1;;;12.7;90.0
72124;BME280;63818;37.134;-8.548;2024-03-29T23:10:00;99577.4;;;12.7;91.1
72124;BME280;63818;37.134;-8.548;2024-03-29T23:14:48;99580.2;;;12.6;90.3
72124;BME280;63818;37.134;-8.548;2024-03-29T23:19:36;99602.9;;;12.6;90.3
72124;BME280;63818;37.134;-8.548;2024-03-29T23:24:24;99602.6;;;12.3;87.2
72124;BME280;63818;37.134;-8.548;2024-03-29T23:29:13;99586.6;;;12.2;88.1
72124;BME280;63818;37.134;-8.548;2024-03-29T23:34:01;99574.9;;;12.2;88.1
72124;BME280;63818;37.134;-8.548;2024-03-29T23:38:50;99584.8;;;12.1;87.9
72124;BME280;63818;37.134;-8.548;2024-03-29T23:43:38;99560.7;;;12.2;87.9
72124;BME280;63818;37.134;-8.548;2024-03-29T23:48:26;99547.3;;;12.2;87.8
72124;BME280;63818;37.134;-8.548;2024-03-29T23:53:14;99553.7;;;12.3;86.8
72124;BME280;63818;37.134;-8.548;2024-03-29T23:58:02;99549.9;;;12.3;85.7
